| Temperature (°F) | Max | Average | Min |
|---|---|---|---|
| Max Temperature | 102 | 91.47 | 72 |
| Avg Temperature | 94.36 | 72.56 | 60.13 |
| Min Temperature | 81 | 56.77 | 50 |
| Precipitation (in) | Max | Average | Min | Sum |
|---|---|---|---|---|
| Precipitation | 0 | 0 | 0 | 0 |
| Dew Point (°F) | Max | Average | Min |
|---|---|---|---|
| Dew Point | 54.12 | 49.06 | 41.91 |
| Wind (mph) | Max | Average | Min |
|---|---|---|---|
| Wind | 21 | 11.27 | 6 |
| Gust Wind | 26 | 19.4 | 16 |
| Sea Level Pressure (in) | Max | Average | Min |
|---|---|---|---|
| Sea Level Pressure | 29.89 | 29.77 | 29.67 |
| Date | Temp High/Low | Dew Pt High/Low | Humidity | Wind | Max Wind | Wind Gust | Pressure | Precip. | Condition |
|---|---|---|---|---|---|---|---|---|---|
| 9/1/2024 | 91 °F / 55 °F | 54 °F / 41 °F | 50 % | 13 mph | - | 29.81 in | 0 in | ||
| 9/2/2024 | 90 °F / 55 °F | 54 °F / 45 °F | 51 % | 12 mph | - | 29.82 in | 0 in | ||
| 9/3/2024 | 99 °F / 55 °F | 54 °F / 32 °F | 44 % | 14 mph | - | 29.83 in | 0 in | ||
| 9/4/2024 | 100 °F / 59 °F | 54 °F / 36 °F | 31 % | 9 mph | - | 29.85 in | 0 in | ||
| 9/5/2024 | 100 °F / 59 °F | 55 °F / 27 °F | 42 % | 7 mph | - | 29.89 in | 0 in | ||
| 9/6/2024 | 102 °F / 59 °F | 50 °F / 36 °F | 35 % | 8 mph | - | 29.85 in | 0 in | ||
| 9/9/2024 | 99 °F / 66 °F | 54 °F / 37 °F | 33 % | 10 mph | - | 29.74 in | 0 in | ||
| 9/10/2024 | 86 °F / 57 °F | 54 °F / 48 °F | 56 % | 13 mph | - | 29.72 in | 0 in | ||
| 9/11/2024 | 86 °F / 54 °F | 55 °F / 46 °F | 61 % | 14 mph | - | 29.71 in | 0 in | ||
| 9/12/2024 | 86 °F / 54 °F | 54 °F / 32 °F | 50 % | 15 mph | - | 29.7 in | 0 in | ||
| 9/13/2024 | 91 °F / 55 °F | 54 °F / 39 °F | 46 % | 12 mph | - | 29.69 in | 0 in | ||
| 9/14/2024 | 91 °F / 55 °F | 54 °F / 41 °F | 53 % | 14 mph | - | 29.71 in | 0 in | ||
| 9/15/2024 | 79 °F / 55 °F | 54 °F / 48 °F | 62 % | 21 mph | - | 29.66 in | 0 in | ||
| 9/16/2024 | 72 °F / 50 °F | 54 °F / 46 °F | 69 % | 8 mph | - | 29.77 in | 0 in | ||
| 9/17/2024 | 75 °F / 55 °F | 54 °F / 48 °F | 65 % | 15 mph | - | 29.87 in | 0 in | ||
| 9/18/2024 | 73 °F / 57 °F | 55 °F / 54 °F | 70 % | 7 mph | - | 29.77 in | 0 in | ||
| 9/19/2024 | 86 °F / 55 °F | 57 °F / 45 °F | 54 % | 12 mph | - | 29.76 in | 0 in | ||
| 9/20/2024 | 90 °F / 52 °F | 57 °F / 50 °F | 62 % | 9 mph | - | 29.76 in | 0 in | ||
| 9/21/2024 | 90 °F / 57 °F | 55 °F / 50 °F | 51 % | 6 mph | - | 29.79 in | 0 in | ||
| 9/22/2024 | 93 °F / 54 °F | 55 °F / 37 °F | 57 % | 7 mph | - | 29.8 in | 0 in | ||
| 9/23/2024 | 97 °F / 55 °F | 54 °F / 37 °F | 46 % | 8 mph | - | 29.76 in | 0 in | ||
| 9/24/2024 | 99 °F / 59 °F | 55 °F / 39 °F | 43 % | 7 mph | - | 29.68 in | 0 in | ||
| 9/25/2024 | 84 °F / 59 °F | 54 °F / 52 °F | 53 % | 14 mph | - | 29.7 in | 0 in | ||
| 9/26/2024 | 86 °F / 50 °F | 55 °F / 48 °F | 66 % | 7 mph | - | 29.79 in | 0 in | ||
| 9/27/2024 | 95 °F / 54 °F | 55 °F / 43 °F | 52 % | 7 mph | - | 29.76 in | 0 in | ||
| 9/28/2024 | 91 °F / 54 °F | 54 °F / 46 °F | 52 % | 10 mph | - | 29.72 in | 0 in | ||
| 9/29/2024 | 88 °F / 50 °F | 55 °F / 45 °F | 63 % | 7 mph | - | 29.81 in | 0 in | ||
| 9/30/2024 | 91 °F / 55 °F | 54 °F / 32 °F | 42 % | 17 mph | - | 29.83 in | 0 in |